Stations météo

réclame
Mon MeteoGroup
Schmücke, Allemagne (10552): Température de l'air & dewpoint: 11.02.2019 13:00:00 - 17.02.2019 13:00:00 (CET)Schmücke, Allemagne (10552): Température de l'air 5cm & Température de l'air -5cm: 11.02.2019 13:00:00 - 17.02.2019 13:00:00 (CET)Schmücke, Allemagne (10552): Température de l'air -20cm & Température de l'air -100cm: 11.02.2019 13:00:00 - 17.02.2019 13:00:00 (CET)Schmücke, Allemagne (10552): Vitesse du vent & gusts: 11.02.2019 13:00:00 - 17.02.2019 13:00:00 (CET)Schmücke, Allemagne (10552): Direction du vent: 11.02.2019 13:00:00 - 17.02.2019 13:00:00 (CET)Schmücke, Allemagne (10552): visibility: 11.02.2019 13:00:00 - 17.02.2019 13:00:00 (CET)Schmücke, Allemagne (10552): Ensoleillement: 11.02.2019 13:00:00 - 17.02.2019 13:00:00 (CET)Schmücke, Allemagne (10552): Quantités de précipitations: 11.02.2019 13:00:00 - 17.02.2019 13:00:00 (CET)
Date & Time tt [°C] td [°C] tt 5cm [°C] tt -5cm [°C] tt -20cm [°C] tt -100cm [°C] ff [km/h] ff [knt] fx [km/h] fx [knt] dd vv [km] sd [min] rr [mm]
17.02.2019 13:00:00 9,4 -2,5 -0,1 0,1 0,5 2,3 17 9 27 15 SW 33 60 0,0
17.02.2019 12:00:00 9,2 -4,0 -0,1 0,1 0,5 2,3 18 10 27 15 SSW 36 60 0,0
17.02.2019 11:00:00 8,4 -3,1 -0,1 0,1 0,5 2,3 14 8 25 13 SW 42 60 0,0
17.02.2019 10:00:00 6,7 -2,9 -0,1 0,1 0,5 2,3 13 7 27 15 SW 35 60 0,0
17.02.2019 09:00:00 5,7 -3,8 -0,1 0,1 0,5 2,3 18 10 31 17 WSW 31 60 0,0
17.02.2019 08:00:00 3,9 -2,3 -0,1 0,1 0,5 2,3 20 11 27 15 WSW 24 21 0,0
17.02.2019 07:00:00 4,2 -2,4 -0,1 0,1 0,5 2,3 20 11 30 16 WSW 33 0 0,0
17.02.2019 06:00:00 5,0 -2,0 -0,1 0,1 0,5 2,3 23 12 33 18 WSW 35 0 0,0
17.02.2019 05:00:00 4,5 -2,8 -0,1 0,1 0,5 2,3 19 11 32 17 WSW 37 0 0,0
17.02.2019 04:00:00 4,5 -1,9 -0,1 0,1 0,5 2,3 22 12 33 18 WSW 36 0 0,0
17.02.2019 03:00:00 5,0 -2,0 -0,1 0,1 0,5 2,3 24 13 32 17 WSW 32 0 0,0
17.02.2019 02:00:00 4,3 -1,8 -0,1 0,1 0,5 2,3 21 11 34 18 WSW 28 0 0,0
17.02.2019 01:00:00 3,7 -1,8 -0,1 0,1 0,5 2,3 22 12 34 18 WSW 26 0 0,0
17.02.2019 00:00:00 4,3 -2,0 -0,1 0,1 0,5 2,3 26 14 39 21 WSW 27 0 0,0
16.02.2019 23:00:00 3,8 -1,8 -0,1 0,1 0,5 2,3 28 15 39 21 WSW 27 0 0,0
16.02.2019 22:00:00 3,4 -1,7 -0,1 0,1 0,5 2,3 21 12 37 20 WSW 27 0 0,0
16.02.2019 21:00:00 4,2 -1,9 -0,1 0,1 0,5 2,3 26 14 39 21 WSW 32 0 0,0
16.02.2019 20:00:00 2,9 -2,8 -0,1 0,1 0,5 2,3 19 11 27 14 WSW 45 0 0,0
16.02.2019 19:00:00 3,6 -3,5 -0,1 0,1 0,5 2,3 17 9 22 12 WSW 50 0 0,0
16.02.2019 18:00:00 5,5 -5,6 -0,1 0,1 0,5 2,3 16 8 32 18 WSW 60 39 0,0
16.02.2019 17:00:00 7,7 -6,8 -0,1 0,1 0,5 2,3 25 13 36 19 WSW 52 60 0,0
16.02.2019 16:00:00 8,1 -4,3 -0,1 0,1 0,5 2,3 23 13 35 19 SW 61 60 0,0
16.02.2019 15:00:00 8,7 -4,0 -0,1 0,1 0,5 2,3 21 12 32 17 SW 61 60 0,0
16.02.2019 14:00:00 8,7 -3,9 -0,1 0,1 0,5 2,3 21 12 36 19 SW 52 60 0,0
16.02.2019 13:00:00 8,3 -4,8 -0,1 0,1 0,5 2,3 25 13 43 23 SW 48 60 0,0
16.02.2019 12:00:00 8,2 -6,4 -0,1 0,1 0,5 2,3 26 14 40 22 SW 70 60 0,0
16.02.2019 11:00:00 7,4 -5,8 -0,1 0,1 0,5 2,3 22 12 37 20 SW 58 60 0,0
16.02.2019 10:00:00 5,8 -7,1 -0,1 0,1 0,5 2,3 27 14 39 21 SW 75 60 0,0
16.02.2019 09:00:00 3,5 -6,4 -0,1 0,1 0,5 2,3 27 14 42 23 SW 59 60 0,0
16.02.2019 08:00:00 2,7 -5,5 -0,1 0,1 0,5 2,3 27 14 40 22 SW 67 13 0,0
16.02.2019 07:00:00 3,0 -6,1 -0,1 0,1 0,5 2,3 24 13 41 22 SW 75 0 0,0
16.02.2019 06:00:00 3,2 -5,8 -0,1 0,1 0,5 2,3 22 12 36 19 SW 69 0 0,0
16.02.2019 05:00:00 3,6 -5,3 -0,1 0,1 0,5 2,3 21 11 31 17 SW 68 0 0,0
16.02.2019 04:00:00 4,2 -6,9 -0,1 0,1 0,5 2,3 17 9 29 16 SW 67 0 0,0
16.02.2019 03:00:00 4,3 -6,4 -0,1 0,1 0,5 2,3 17 9 26 14 SW 75 0 0,0
16.02.2019 02:00:00 4,5 -7,3 -0,1 0,1 0,5 2,3 14 8 21 12 SW 69 0 0,0
16.02.2019 01:00:00 4,4 -6,2 -0,1 0,1 0,5 2,3 16 9 27 15 SW 70 0 0,0
16.02.2019 00:00:00 4,9 -5,5 -0,1 0,1 0,5 2,3 17 9 31 17 SW 72 0 0,0
15.02.2019 23:00:00 4,9 -4,8 -0,1 0,1 0,5 2,3 18 10 32 17 SW 61 0 0,0
15.02.2019 22:00:00 4,4 -3,9 -0,1 0,1 0,5 2,3 18 10 28 15 SW 64 0 0,0
15.02.2019 21:00:00 5,0 -7,0 -0,1 0,1 0,5 2,3 17 9 27 15 SW 65 0 0,0
15.02.2019 20:00:00 4,5 -7,8 -0,1 0,1 0,5 2,3 15 8 20 11 SW 75 0 0,0
15.02.2019 19:00:00 4,8 -6,6 -0,1 0,1 0,5 2,3 14 7 17 9 SW 71 0 0,0
15.02.2019 18:00:00 5,7 -2,8 -0,1 0,1 0,5 2,3 10 6 17 9 SW 56 38 0,0
15.02.2019 17:00:00 7,5 -2,0 -0,1 0,1 0,5 2,3 14 8 20 11 SW 60 60 0,0
15.02.2019 16:00:00 9,5 -2,2 -0,1 0,1 0,5 2,3 14 8 22 12 SW 58 60 0,0
15.02.2019 15:00:00 9,9 -3,2 -0,1 0,1 0,5 2,3 14 8 23 12 SW 63 60 0,0
15.02.2019 14:00:00 10,3 -5,4 -0,1 0,1 0,5 2,3 14 8 22 12 SW 71 60 0,0
15.02.2019 13:00:00 10,6 -3,6 -0,1 0,1 0,5 2,3 11 6 17 9 SSW 55 60 0,0
15.02.2019 12:00:00 10,0 -5,2 -0,1 0,1 0,5 2,3 9 5 16 8 SW 55 60 0,0
15.02.2019 11:00:00 8,9 -4,5 -0,1 0,1 0,5 2,3 9 5 13 7 SW 46 60 0,0
15.02.2019 10:00:00 6,9 -4,7 -0,1 0,1 0,5 2,3 10 5 14 7 SW 67 60 0,0
15.02.2019 09:00:00 4,8 -4,5 -0,1 0,1 0,5 2,3 10 6 12 7 SW 71 60 0,0
15.02.2019 08:00:00 3,1 -5,0 -0,1 0,1 0,5 2,3 8 5 10 5 SW 71 17 0,0
15.02.2019 07:00:00 2,2 -3,1 -0,1 0,1 0,5 2,3 4 2 7 4 SSW 75 0 0,0
15.02.2019 06:00:00 2,9 -3,3 -0,1 0,1 0,5 2,3 5 3 7 4 SW 75 0 0,0
15.02.2019 05:00:00 2,4 -1,7 -0,1 0,1 0,5 2,3 6 3 7 4 SW 75 0 0,0
15.02.2019 04:00:00 2,4 -1,2 -0,1 0,1 0,5 2,3 4 2 8 4 SW 75 0 0,0
15.02.2019 03:00:00 3,2 -2,4 -0,1 0,1 0,5 2,3 7 4 12 7 SW 75 0 0,0
15.02.2019 02:00:00 3,1 -3,2 -0,1 0,1 0,5 2,3 10 5 12 7 WSW 75 0 0,0
15.02.2019 01:00:00 3,4 -3,0 -0,1 0,1 0,5 2,3 8 4 13 7 SW 75 0 0,0
15.02.2019 00:00:00 2,5 -3,0 -0,1 0,1 0,5 2,3 6 3 6 4 SW 71 0 0,0
14.02.2019 23:00:00 1,6 -2,0 -0,1 0,1 0,5 2,3 2 1 8 4 WSW 75 0 0,0
14.02.2019 22:00:00 1,5 -1,7 -0,1 0,1 0,5 2,3 8 4 10 5 NNE 73 0 0,0
14.02.2019 21:00:00 1,3 -1,4 -0,1 0,1 0,5 2,3 8 4 11 6 N 68 0 0,0
14.02.2019 20:00:00 1,3 -1,1 -0,1 0,1 0,5 2,3 8 4 13 7 NW 73 0 0,0
14.02.2019 19:00:00 1,4 -0,7 -0,1 0,1 0,5 2,3 8 4 11 6 NW 75 0 0,0
14.02.2019 18:00:00 1,8 0,5 -0,1 0,1 0,5 2,3 4 2 10 6 N 73 25 0,0
14.02.2019 17:00:00 4,2 1,4 -0,1 0,1 0,5 2,3 5 3 13 7 N 74 60 0,0
14.02.2019 16:00:00 6,5 2,7 -0,1 0,1 0,5 2,3 6 3 13 7 WNW 58 60 0,0
14.02.2019 15:00:00 7,3 0,6 -0,1 0,1 0,5 2,3 9 5 17 9 NW 61 60 0,0
14.02.2019 14:00:00 6,6 1,0 -0,1 0,1 0,5 2,3 9 5 16 8 NW 75 35 0,0
14.02.2019 13:00:00 4,0 1,1 -0,1 0,1 0,5 2,3 9 5 16 9 NW 67 9 0,0
14.02.2019 12:00:00 5,7 1,4 -0,1 0,1 0,5 2,3 9 5 17 9 NNW 68 60 0,0
14.02.2019 11:00:00 3,5 -2,3 -0,1 0,1 0,5 2,3 11 6 18 10 NW 67 10 0,0
14.02.2019 10:00:00 1,6 -1,1 -0,1 0,1 0,5 2,3 11 6 19 10 NW 75 3 0,0
14.02.2019 09:00:00 0,7 -4,7 -0,1 0,1 0,5 2,3 14 8 19 10 NW 75 0 0,0
14.02.2019 08:00:00 -0,5 -4,5 -0,1 0,1 0,5 2,3 13 7 19 10 NNW 69 0 0,0
14.02.2019 07:00:00 -1,5 -3,4 -0,1 0,1 0,5 2,3 12 6 21 11 WNW 71 0 0,0
14.02.2019 06:00:00 -1,9 -4,1 -0,1 0,1 0,5 2,3 11 6 23 12 WSW 56 0 0,0
14.02.2019 05:00:00 -1,7 -3,6 -0,1 0,1 0,5 2,3 14 8 24 13 WSW 41 0 0,0
14.02.2019 04:00:00 -1,6 -3,7 -0,1 0,1 0,5 2,3 16 8 30 16 WSW 53 0 0,0
14.02.2019 03:00:00 -1,7 -3,4 -0,1 0,1 0,5 2,3 20 11 30 16 WSW 39 0 0,0
14.02.2019 02:00:00 -1,4 -3,0 -0,1 0,1 0,5 2,3 23 12 35 19 WSW 42 0 0,0
14.02.2019 01:00:00 -2,0 -3,2 -0,1 0,1 0,5 2,3 20 11 36 20 WSW 36 0 0,0
14.02.2019 00:00:00 -1,9 -3,0 -0,1 0,1 0,5 2,3 23 12 31 17 SW 34 0 0,0
13.02.2019 23:00:00 -2,0 -3,0 -0,1 0,1 0,5 2,3 18 10 26 14 SW 26 0 0,0
13.02.2019 22:00:00 -1,9 -2,8 -0,1 0,1 0,5 2,3 18 10 26 14 SW 27 0 0,0
13.02.2019 21:00:00 -1,5 -2,3 -0,1 0,1 0,5 2,3 17 9 26 14 SW 29 0 0,0
13.02.2019 20:00:00 -1,3 -2,0 -0,1 0,1 0,5 2,3 18 10 25 13 SW 21 0 0,0
13.02.2019 19:00:00 -0,8 -1,3 -0,1 0,1 0,5 2,3 18 10 26 14 SW 6 0 0,0
13.02.2019 18:00:00 -0,6 -1,0 -0,1 0,1 0,5 2,3 17 9 31 17 SW 3,5 0 0,0
13.02.2019 17:00:00 -0,3 -0,8 -0,1 0,1 0,5 2,3 24 13 30 16 SW 5 1 0,0
13.02.2019 16:00:00 0,0 -0,4 -0,1 0,1 0,5 2,3 19 10 27 15 SW 3,0 5 0,0
13.02.2019 15:00:00 -0,4 -0,8 -0,1 0,1 0,5 2,3 14 8 27 15 SW 0,2 0 0,0
13.02.2019 14:00:00 -0,6 -1,0 -0,1 0,1 0,5 2,3 13 7 26 14 SW 0,1 0 0,0
13.02.2019 13:00:00 -0,9 -1,3 -0,1 0,1 0,5 2,3 16 9 27 15 SW 0,1 0 0,0
13.02.2019 12:00:00 -1,2 -1,6 -0,1 0,1 0,5 2,3 11 6 21 11 WSW 0,1 0 0,0
13.02.2019 11:00:00 -1,5 -1,9 -0,1 0,1 0,5 2,3 9 5 25 14 WSW 0,1 0 0,0
13.02.2019 10:00:00 -1,7 -2,1 -0,1 0,1 0,5 2,3 14 7 27 15 WSW 0,1 0 0,0
13.02.2019 09:00:00 -2,1 -2,5 -0,1 0,1 0,5 2,3 16 9 36 19 WSW 0,2 0 0,0
13.02.2019 08:00:00 -2,6 -3,1 -0,1 0,1 0,5 2,3 21 11 34 19 WSW 0,2 0 0,0
13.02.2019 07:00:00 -2,7 -3,1 -0,1 0,1 0,5 2,3 21 12 38 20 SW 0,2 0 0,0
13.02.2019 06:00:00 -2,9 -3,4 -0,1 0,1 0,5 2,3 23 13 35 19 SW 0,4 0 0,0
13.02.2019 05:00:00 -2,8 -3,3 -0,1 0,1 0,5 2,3 17 9 36 20 WSW 0,2 0 0,0
13.02.2019 04:00:00 -2,6 -3,1 -0,1 0,1 0,5 2,3 17 9 34 18 WSW 0,5 0 0,0
13.02.2019 03:00:00 -2,5 -3,0 -0,1 0,1 0,5 2,3 19 11 33 18 WSW 0,7 0 0,0
13.02.2019 02:00:00 -2,3 -2,8 -0,1 0,1 0,5 2,3 16 9 31 17 WSW 1,1 0 0,0
13.02.2019 01:00:00 -2,2 -2,7 -0,1 0,1 0,5 2,3 22 12 39 21 WSW 0,4 0 0,0
13.02.2019 00:00:00 -2,1 -2,5 -0,1 0,1 0,5 2,3 19 11 41 22 WSW 0,1 0 0,0
12.02.2019 23:00:00 -1,9 -2,4 -0,1 0,1 0,5 2,3 23 13 38 20 WSW 0,2 0 0,0
12.02.2019 22:00:00 -2,0 -2,4 -0,1 0,1 0,5 2,3 16 9 33 18 WSW 0,1 0 0,0
12.02.2019 21:00:00 -2,0 -2,5 -0,1 0,1 0,5 2,3 17 9 30 16 W 0,2 0 0,0
12.02.2019 20:00:00 -2,1 -2,6 -0,1 0,1 0,5 2,3 14 8 31 17 WSW 0,3 0 0,0
12.02.2019 19:00:00 -2,1 -2,6 -0,1 0,1 0,5 2,3 12 6 29 16 W 3,7 0 0,0
12.02.2019 18:00:00 -2,1 -2,8 -0,1 0,1 0,5 2,3 15 8 27 15 W 10 0 0,0
12.02.2019 17:00:00 -2,0 -2,8 -0,1 0,1 0,5 2,3 16 8 29 16 W 20 0 0,0
12.02.2019 16:00:00 -1,9 -2,8 -0,1 0,1 0,5 2,3 15 8 33 18 WNW 27 0 0,0
12.02.2019 15:00:00 -1,8 -2,9 -0,1 0,1 0,5 2,3 13 7 33 18 WNW 38 0 0,1
12.02.2019 14:00:00 -2,0 -3,2 -0,1 0,1 0,5 2,3 13 7 35 19 WNW 35 0 0,0
12.02.2019 13:00:00 -1,8 -3,0 -0,1 0,1 0,5 2,3 13 7 34 18 WNW 40 4 0,0
12.02.2019 12:00:00 -2,4 -3,4 -0,1 0,1 0,5 2,3 13 7 30 16 WNW 21 0 0,1
12.02.2019 11:00:00 -2,6 -3,6 -0,1 0,1 0,5 2,3 11 6 34 18 WNW 1,9 0 0,4
12.02.2019 10:00:00 -3,1 -3,9 -0,1 0,1 0,5 2,3 18 10 35 19 W 9 0 0,0
12.02.2019 09:00:00 -3,4 -4,4 -0,1 0,1 0,5 2,3 19 10 40 22 W 6 0 0,0
12.02.2019 08:00:00 -3,7 -4,6 -0,1 0,1 0,5 2,3 16 9 33 18 W 4,7 0 0,0
12.02.2019 07:00:00 -3,9 -4,9 -0,1 0,1 0,5 2,3 17 9 31 17 W 24 0 0,0
12.02.2019 06:00:00 -3,9 -5,2 -0,1 0,1 0,5 2,3 14 8 35 19 W 14 0 0,0
12.02.2019 05:00:00 -4,0 -5,3 -0,1 0,1 0,5 2,3 13 7 33 18 WNW 27 0 0,0
12.02.2019 04:00:00 -4,0 -5,4 -0,1 0,1 0,5 2,4 14 7 36 20 WNW 37 0 0,0
12.02.2019 03:00:00 -3,8 -5,0 -0,1 0,1 0,5 2,4 13 7 36 19 WNW 26 0 0,0
12.02.2019 02:00:00 -3,9 -5,3 -0,1 0,1 0,5 2,4 12 7 37 20 WNW 33 0 0,0
12.02.2019 01:00:00 -3,9 -5,2 -0,1 0,1 0,5 2,4 11 6 39 21 NW 34 0 0,0
12.02.2019 00:00:00 -3,8 -5,3 -0,1 0,1 0,5 2,4 13 7 32 17 NW 35 0 0,0
11.02.2019 23:00:00 -3,6 -5,0 -0,1 0,1 0,5 2,4 13 7 32 18 NNW 30 0 0,0
11.02.2019 22:00:00 -3,2 -4,5 -0,1 0,1 0,5 2,4 12 7 41 22 WNW 23 0 0,0
11.02.2019 21:00:00 -2,6 -3,8 -0,1 0,1 0,5 2,4 14 7 51 28 NW 25 0 0,0
11.02.2019 20:00:00 -2,2 -3,1 -0,1 0,1 0,5 2,4 16 9 42 23 WNW 21 0 0,0
11.02.2019 19:00:00 -2,2 -3,0 -0,1 0,1 0,5 2,4 18 10 39 21 W 15 0 0,0
11.02.2019 18:00:00 -2,6 -3,7 -0,1 0,1 0,5 2,4 16 8 37 20 W 32 0 0,0
11.02.2019 17:00:00 -1,9 -2,9 -0,1 0,1 0,5 2,4 16 9 49 27 WNW 21 0 0,6
11.02.2019 16:00:00 -1,4 -2,0 -0,1 0,1 0,5 2,4 26 14 43 23 W 0,3 0 0,2
11.02.2019 15:00:00 -1,3 -1,9 -0,1 0,1 0,5 2,4 27 14 50 27 W 0,6 0 0,5
11.02.2019 14:00:00 -1,4 -1,9 -0,1 0,1 0,5 2,4 22 12 41 22 W 0,8 0 0,6
11.02.2019 13:00:00 -1,6 -2,1 -0,1 0,1 0,5 2,4 24 13 50 27 W 1,0 0 0,5

tt = Température de l'air
td = dewpoint
tt 5cm = Température de l'air 5cm
tt -5cm = Température de l'air -5cm
tt -20cm = Température de l'air -20cm
tt -100cm = Température de l'air -100cm
ff = Vitesse du vent
fx = gusts
dd = Direction du vent
vv = visibility
sd = Ensoleillement
rr = Quantités de précipitations

stations d'obs. à proximité